createdAt,value
2023-07-06T00:09:52.638Z,95.50
2023-07-06T00:19:51.662Z,96.00
2023-07-06T00:29:57.768Z,96.20
2023-07-06T00:39:56.615Z,96.50
2023-07-06T00:49:55.757Z,96.70
2023-07-06T00:59:54.625Z,96.80
2023-07-06T01:09:54.005Z,96.80
2023-07-06T01:19:52.666Z,96.90
2023-07-06T01:29:51.655Z,97.20
2023-07-06T01:39:52.586Z,97.10
2023-07-06T01:49:52.391Z,97.20
2023-07-06T01:59:51.666Z,97.30
2023-07-06T02:09:52.062Z,97.50
2023-07-06T02:19:50.692Z,97.70
2023-07-06T02:29:50.007Z,97.90
2023-07-06T02:39:48.699Z,98.00
2023-07-06T02:49:47.699Z,98.20
2023-07-06T02:59:46.713Z,98.30
2023-07-06T03:09:46.011Z,98.40
2023-07-06T03:19:44.706Z,98.60
2023-07-06T03:29:44.250Z,98.70
2023-07-06T03:39:42.721Z,98.70
2023-07-06T03:49:41.746Z,98.90
2023-07-06T03:59:40.791Z,99.00
2023-07-06T04:09:39.979Z,99.10
2023-07-06T04:19:38.760Z,99.20
2023-07-06T04:29:38.591Z,99.30
2023-07-06T04:39:38.889Z,99.40
2023-07-06T04:49:38.692Z,99.40
2023-07-06T04:59:37.788Z,99.40
2023-07-06T05:09:37.778Z,99.40
2023-07-06T05:19:37.113Z,99.50
2023-07-06T05:29:36.099Z,99.60
2023-07-06T05:39:34.815Z,99.80
2023-07-06T05:49:33.824Z,99.90
2023-07-06T05:59:32.854Z,99.90
2023-07-06T06:09:31.825Z,99.40
2023-07-06T06:19:32.225Z,97.80
2023-07-06T06:29:30.833Z,95.10
2023-07-06T06:39:29.860Z,95.10
2023-07-06T06:49:28.967Z,94.80
2023-07-06T06:59:28.158Z,94.60
2023-07-06T07:09:27.557Z,94.30
2023-07-06T07:19:28.961Z,94.30
2023-07-06T07:29:27.881Z,94.30
2023-07-06T07:39:26.896Z,94.30
2023-07-06T07:49:25.998Z,93.60
2023-07-06T07:59:24.947Z,93.40
2023-07-06T08:09:24.448Z,93.10
2023-07-06T08:19:40.268Z,92.90
2023-07-06T08:29:23.888Z,93.00
2023-07-06T08:39:22.928Z,91.80
2023-07-06T08:49:22.762Z,91.30
2023-07-06T08:59:21.930Z,89.80
2023-07-06T09:09:21.252Z,88.40
2023-07-06T09:19:20.062Z,88.00
2023-07-06T09:29:18.961Z,88.00
2023-07-06T09:39:18.382Z,86.60
2023-07-06T09:49:18.167Z,85.20
2023-07-06T09:59:16.974Z,83.80
2023-07-06T10:09:17.923Z,79.40
2023-07-06T10:19:17.010Z,78.20
2023-07-06T10:29:17.609Z,76.00
2023-07-06T10:39:16.013Z,74.30
2023-07-06T10:49:15.477Z,70.50
2023-07-06T10:59:13.987Z,67.70
2023-07-06T11:09:13.002Z,66.80
2023-07-06T11:19:12.143Z,65.10
2023-07-06T11:29:11.152Z,60.90
2023-07-06T11:39:10.589Z,59.50
2023-07-06T11:49:10.268Z,59.70
2023-07-06T11:59:11.012Z,58.10
2023-07-06T12:09:11.393Z,57.40
2023-07-06T12:19:10.117Z,56.20
2023-07-06T12:29:09.669Z,54.10
2023-07-06T12:39:09.839Z,53.50
2023-07-06T12:49:11.021Z,52.70
2023-07-06T12:59:10.100Z,52.60
2023-07-06T13:09:10.512Z,52.70
2023-07-06T13:19:09.136Z,51.80
2023-07-06T13:29:08.129Z,50.90
2023-07-06T13:39:07.953Z,50.40
2023-07-06T13:49:07.292Z,50.40
2023-07-06T13:59:06.176Z,51.90
2023-07-06T14:09:05.361Z,52.00
2023-07-06T14:19:05.711Z,51.60
2023-07-06T14:29:04.287Z,51.20
2023-07-06T14:39:03.346Z,52.10
2023-07-06T14:49:02.189Z,50.30
2023-07-06T14:59:01.211Z,50.30
2023-07-06T15:09:00.213Z,49.90
2023-07-06T15:18:59.231Z,49.80
2023-07-06T15:28:58.235Z,49.90
2023-07-06T15:38:57.216Z,50.40
2023-07-06T15:48:56.219Z,48.90
2023-07-06T15:58:55.221Z,48.00
2023-07-06T16:08:54.344Z,44.80
2023-07-06T16:18:53.297Z,38.20
2023-07-06T16:28:52.310Z,31.60
2023-07-06T16:38:52.557Z,29.80
2023-07-06T16:48:51.248Z,29.10
2023-07-06T16:58:50.243Z,29.10
2023-07-06T17:08:49.289Z,29.00
2023-07-06T17:18:48.290Z,29.50
2023-07-06T17:28:47.268Z,33.80
2023-07-06T17:38:46.299Z,38.70
2023-07-06T17:48:45.323Z,41.50
2023-07-06T17:58:44.312Z,43.20
2023-07-06T18:08:43.296Z,44.00
2023-07-06T18:18:42.310Z,45.20
2023-07-06T18:28:41.314Z,45.70
2023-07-06T18:38:40.397Z,46.20
2023-07-06T18:48:39.361Z,46.90
2023-07-06T18:58:39.948Z,47.30
2023-07-06T19:08:39.381Z,47.80
2023-07-06T19:18:38.397Z,48.00
2023-07-06T19:28:37.402Z,49.10
2023-07-06T19:38:36.395Z,50.30
2023-07-06T19:48:35.423Z,51.20
2023-07-06T19:58:34.400Z,52.20
2023-07-06T20:08:34.514Z,53.30
2023-07-06T20:18:33.610Z,54.10
2023-07-06T20:28:32.415Z,55.10
2023-07-06T20:38:31.451Z,56.00
2023-07-06T20:48:30.441Z,57.40
2023-07-06T20:58:29.458Z,58.50
2023-07-06T21:08:28.424Z,59.50
2023-07-06T21:18:27.456Z,60.30
2023-07-06T21:28:26.468Z,61.60
2023-07-06T21:38:25.469Z,62.20
2023-07-06T21:48:24.496Z,62.90
2023-07-06T21:58:23.693Z,63.60
2023-07-06T22:08:22.478Z,64.10
2023-07-06T22:18:21.481Z,64.20
2023-07-06T22:28:20.519Z,65.20
2023-07-06T22:38:19.486Z,66.00
2023-07-06T22:48:18.551Z,66.50
2023-07-06T22:58:17.530Z,67.40
2023-07-06T23:08:16.552Z,67.80
2023-07-06T23:18:15.648Z,68.60
2023-07-06T23:28:14.533Z,68.70
2023-07-06T23:38:13.869Z,69.00
2023-07-06T23:48:12.584Z,69.50
2023-07-06T23:58:11.568Z,70.00
